Chambord, Canada
Current Conditions -  °F | °C
As of 1:23 AM on Sunday 26 Oct 2014 (Local Time) from CYRJ Reporting Station
Light Rain Light Rain  
Wind Chill: 35°   Ceiling: 2000
Heat Index: 41°   Visibility: 12mi
Dew Point: 39°   Wind: 9mph
Humidity: 93%   Direction: 110°ESE
Pressure: 29.33"   Gusts: 17mph
Location:  48.43°N, 72.08°W
Report Text: CYRJ 260523Z 11008G15KT 070V130 12SM -RA SCT005 OVC020 05/04 A2933 RMK SF4SC4 SLP938
Loading
Personal Weather Stations






























Interactive Weather Map
Tropical Storm Tracking
New forecast layout! Learn more

10-Day Weather Forecast

Advertisements
Track Severe Weather on mobile